In Rescue
 
Open Full Screen Window  High Contrast Mode
Wind Gusting 20 knots
10
March 29, 2020 7:28 PM EDT
Weather Information
Wind Direction
  250 °
Wind Speed
  10 kt (12 mph)
Wind Gust
  20 kt (23 mph)
Altimeter
29.87 in
Visibility
10 SM
Temperature
15° C
59° F
Dewpoint
05° C
41° F
Humidity
51%
1hr Rain Fall
00.00 in.
24hr Rain Fall
00.70 in.
Sky Condition
Scattered @ 6,000 ft
VFR

METAR KDLZ 292328Z AUTO 25010G20KT 10SM SCT060 15/05 A2987 RMK AO2

FAA Disclaimer: The data displayed is for advisory purposes only and is not to be used for flight planning or operations.